Time;durP1;ratioP1;P1;durP2;ratioP2;P2;SDS_P1;SDS_P2;PMS_P1;PMS_P2;Temp;Humidity;BMP_temperature;BMP_pressure;BME280_temperature;BME280_humidity;BME280_pressure;Samples;Min_cycle;Max_cycle;Signal;HPM_P1;HPM_P2
2021/07/17 00:00:43;;;;;;;28.77;12.10;;;;;;;;;;5055040;28;20758;-75
2021/07/17 00:03:08;;;;;;;29.03;11.47;;;20.10;99.90;;;;;;5054548;28;20250;-75
2021/07/17 00:05:39;;;;;;;28.53;11.30;;;20.10;99.90;;;;;;5062255;28;20499;-75
2021/07/17 00:08:05;;;;;;;22.53;11.50;;;20.20;99.90;;;;;;5055331;28;20193;-76
2021/07/17 00:10:48;;;;;;;33.50;12.53;;;20.20;99.90;;;;;;5074897;28;20858;-75
2021/07/17 00:13:18;;;;;;;27.00;11.60;;;20.20;99.90;;;;;;5074961;28;20417;-75
2021/07/17 00:15:45;;;;;;;34.90;12.90;;;20.20;99.90;;;;;;5060758;28;20753;-75
2021/07/17 00:18:12;;;;;;;29.07;11.67;;;20.20;99.90;;;;;;5054671;28;20476;-75
2021/07/17 00:20:38;;;;;;;30.20;12.60;;;20.20;99.90;;;;;;5054728;28;20399;-75
2021/07/17 00:23:04;;;;;;;20.30;11.60;;;;;;;;;;5054395;28;20449;-75
2021/07/17 00:25:33;;;;;;;19.77;11.63;;;20.10;99.90;;;;;;5059328;28;20774;-75
2021/07/17 00:27:59;;;;;;;28.13;12.10;;;20.10;99.90;;;;;;5074754;28;20450;-75
2021/07/17 00:30:25;;;;;;;35.50;11.97;;;20.10;99.90;;;;;;5061283;28;20515;-76
2021/07/17 00:32:51;;;;;;;38.50;12.93;;;20.10;99.90;;;;;;5072620;28;20182;-75
2021/07/17 00:35:16;;;;;;;21.40;11.50;;;20.20;99.90;;;;;;5070572;28;20596;-75
2021/07/17 00:37:43;;;;;;;28.10;11.60;;;20.20;99.90;;;;;;5074158;28;20198;-75
2021/07/17 00:40:10;;;;;;;29.27;12.00;;;20.20;99.90;;;;;;5074304;28;20519;-75
2021/07/17 00:42:48;;;;;;;26.00;12.07;;;20.20;99.90;;;;;;5060451;28;20480;-75
2021/07/17 00:45:14;;;;;;;23.30;10.67;;;20.30;99.90;;;;;;5058684;28;20425;-75
2021/07/17 00:47:45;;;;;;;22.80;11.20;;;20.30;99.90;;;;;;5054006;28;20464;-75
2021/07/17 00:50:17;;;;;;;23.40;11.80;;;20.20;99.90;;;;;;5054083;28;20429;-75
2021/07/17 00:52:46;;;;;;;27.83;11.90;;;20.20;99.90;;;;;;5052904;28;20444;-75
2021/07/17 00:55:17;;;;;;;28.20;11.90;;;20.20;99.90;;;;;;5053922;28;20422;-75
2021/07/17 00:57:46;;;;;;;23.87;11.03;;;20.30;99.90;;;;;;5054496;28;20454;-75
2021/07/17 01:00:15;;;;;;;27.70;11.57;;;20.30;99.90;;;;;;5062370;28;20874;-75
2021/07/17 01:02:48;;;;;;;25.03;11.90;;;20.30;99.90;;;;;;5071830;28;20505;-75
2021/07/17 01:05:15;;;;;;;25.13;12.03;;;20.30;99.90;;;;;;5060164;28;20472;-75
2021/07/17 01:07:41;;;;;;;23.10;11.80;;;20.20;99.90;;;;;;5053921;28;20410;-75
2021/07/17 01:10:11;;;;;;;26.03;10.73;;;20.30;99.90;;;;;;5053933;28;20458;-75
2021/07/17 01:12:57;;;;;;;26.93;11.93;;;20.20;99.90;;;;;;5054088;28;20402;-75
2021/07/17 01:15:23;;;;;;;30.23;11.80;;;20.20;99.90;;;;;;5070432;28;20416;-75
2021/07/17 01:17:49;;;;;;;24.57;12.20;;;20.20;99.90;;;;;;5073201;28;20978;-75
2021/07/17 01:20:21;;;;;;;21.03;11.57;;;20.20;99.90;;;;;;5072219;28;20166;-75
2021/07/17 01:22:57;;;;;;;28.83;13.00;;;20.10;99.90;;;;;;5053611;28;20688;-75
2021/07/17 01:25:34;;;;;;;19.30;10.70;;;20.10;99.90;;;;;;5067600;28;20419;-75
2021/07/17 01:28:02;;;;;;;20.83;11.33;;;20.10;99.90;;;;;;5072290;28;20431;-75
2021/07/17 01:30:31;;;;;;;34.30;11.30;;;20.10;99.90;;;;;;5053536;28;20760;-75
2021/07/17 01:32:58;;;;;;;32.40;11.80;;;20.10;99.90;;;;;;5069919;28;20431;-76
2021/07/17 01:35:27;;;;;;;24.43;13.20;;;20.00;99.90;;;;;;5073207;28;20477;-75
2021/07/17 01:37:54;;;;;;;26.17;11.77;;;19.90;99.90;;;;;;5071888;28;20459;-75
2021/07/17 01:40:27;;;;;;;21.77;10.40;;;19.90;99.90;;;;;;5073708;28;20459;-75
2021/07/17 01:42:58;;;;;;;27.80;12.07;;;19.90;99.90;;;;;;5071885;28;20409;-75
2021/07/17 01:45:35;;;;;;;28.43;11.13;;;19.90;99.90;;;;;;5067754;28;20735;-75
2021/07/17 01:48:04;;;;;;;23.07;11.47;;;19.90;99.90;;;;;;5073632;28;20393;-75
2021/07/17 01:50:36;;;;;;;22.30;10.50;;;19.90;99.90;;;;;;5054255;28;20421;-75
2021/07/17 01:53:27;;;;;;;20.17;10.23;;;19.90;99.90;;;;;;5061609;28;20418;-75
2021/07/17 01:55:53;;;;;;;21.97;10.83;;;19.90;99.90;;;;;;5066109;28;20422;-75
2021/07/17 01:58:19;;;;;;;20.83;10.83;;;19.90;99.90;;;;;;5061268;28;20551;-75
2021/07/17 02:00:45;;;;;;;24.17;11.20;;;19.90;99.90;;;;;;5075400;28;20976;-75
2021/07/17 02:03:15;;;;;;;27.53;11.27;;;19.80;99.90;;;;;;5070615;28;20171;-75
2021/07/17 02:05:41;;;;;;;21.87;11.07;;;19.90;99.90;;;;;;5057131;28;20450;-75
2021/07/17 02:08:13;;;;;;;23.77;11.23;;;19.90;99.90;;;;;;5057050;28;20515;-76
2021/07/17 02:10:39;;;;;;;21.20;10.10;;;19.90;99.90;;;;;;5057220;28;20182;-76
2021/07/17 02:13:14;;;;;;;19.97;10.57;;;19.90;99.90;;;;;;5058289;28;20409;-75
2021/07/17 02:15:47;;;;;;;23.27;10.53;;;19.90;99.90;;;;;;5076785;28;20458;-75
2021/07/17 02:18:25;;;;;;;20.93;11.00;;;19.90;99.90;;;;;;5072989;28;20468;-75
2021/07/17 02:20:51;;;;;;;21.03;10.17;;;19.90;99.90;;;;;;5056894;28;20762;-75
2021/07/17 02:23:28;;;;;;;20.57;10.90;;;19.90;99.90;;;;;;5056537;28;20496;-75
2021/07/17 02:25:57;;;;;;;18.20;10.33;;;19.90;99.90;;;;;;5056979;28;20417;-75
2021/07/17 02:28:23;;;;;;;19.43;10.30;;;19.90;99.90;;;;;;5057391;28;20465;-75
2021/07/17 02:30:57;;;;;;;28.90;11.20;;;19.90;99.90;;;;;;5056674;28;20418;-75
2021/07/17 02:33:23;;;;;;;18.20;10.23;;;19.90;99.90;;;;;;5057709;28;20174;-75
2021/07/17 02:35:49;;;;;;;27.60;10.37;;;19.90;99.90;;;;;;5076732;28;20498;-75
2021/07/17 02:38:16;;;;;;;20.53;10.20;;;19.90;99.90;;;;;;5076579;28;20883;-75
2021/07/17 02:40:45;;;;;;;31.60;10.47;;;19.90;99.90;;;;;;5076571;28;20163;-75
2021/07/17 02:43:11;;;;;;;33.93;12.27;;;;;;;;;;5058767;28;20392;-75
2021/07/17 02:45:39;;;;;;;21.53;9.57;;;19.90;99.90;;;;;;5067792;28;20808;-76
2021/07/17 02:48:06;;;;;;;25.60;10.60;;;;;;;;;;5076595;28;20748;-75
2021/07/17 02:50:32;;;;;;;19.50;10.33;;;19.80;99.90;;;;;;5071156;28;20512;-76
2021/07/17 02:52:58;;;;;;;24.17;11.17;;;19.80;99.90;;;;;;5056266;28;20381;-75
2021/07/17 02:55:24;;;;;;;16.83;10.20;;;19.90;99.90;;;;;;5056077;28;20425;-75
2021/07/17 02:57:57;;;;;;;16.83;9.80;;;19.90;99.90;;;;;;5056108;28;20820;-75
2021/07/17 03:00:23;;;;;;;18.67;10.20;;;19.90;99.90;;;;;;5056408;28;20167;-75
2021/07/17 03:02:51;;;;;;;23.80;9.90;;;19.90;99.90;;;;;;5074102;28;20413;-75
2021/07/17 03:05:17;;;;;;;14.63;9.60;;;19.90;99.90;;;;;;5074349;28;20163;-76
2021/07/17 03:07:57;;;;;;;22.47;9.83;;;19.90;99.90;;;;;;5056016;28;20737;-76
2021/07/17 03:10:23;;;;;;;22.33;9.60;;;19.90;99.90;;;;;;5055497;28;20194;-76
2021/07/17 03:12:49;;;;;;;24.30;10.53;;;;;;;;;;5055867;28;20437;-75
2021/07/17 03:15:15;;;;;;;21.07;9.53;;;19.90;99.90;;;;;;5064069;28;20915;-76
2021/07/17 03:17:45;;;;;;;27.40;9.13;;;20.00;99.90;;;;;;5074399;28;20455;-75
2021/07/17 03:20:11;;;;;;;18.60;9.63;;;20.00;99.90;;;;;;5072089;28;20258;-75
2021/07/17 03:22:37;;;;;;;22.53;9.53;;;20.00;99.90;;;;;;5057240;28;20393;-75
2021/07/17 03:25:04;;;;;;;21.03;9.57;;;20.00;99.90;;;;;;5055658;28;20952;-75
2021/07/17 03:27:30;;;;;;;18.87;9.80;;;;;;;;;;5055590;28;20457;-75
2021/07/17 03:29:56;;;;;;;14.00;9.17;;;19.90;99.90;;;;;;5055921;28;20441;-75
2021/07/17 03:32:23;;;;;;;29.03;9.03;;;19.90;99.90;;;;;;5056265;28;20449;-76
2021/07/17 03:34:48;;;;;;;17.30;9.40;;;19.80;99.90;;;;;;5067601;28;20175;-75
2021/07/17 03:37:14;;;;;;;18.00;8.23;;;19.90;99.90;;;;;;5075510;28;20392;-76
2021/07/17 03:39:45;;;;;;;13.10;8.07;;;19.90;99.90;;;;;;5074282;28;20179;-75
2021/07/17 03:42:11;;;;;;;24.67;9.50;;;19.90;99.90;;;;;;5073174;28;20201;-75
2021/07/17 03:44:39;;;;;;;12.17;8.60;;;19.90;99.90;;;;;;5075697;28;20874;-75
2021/07/17 03:47:09;;;;;;;17.73;8.27;;;19.90;99.90;;;;;;5075216;28;20620;-75
2021/07/17 03:49:35;;;;;;;16.90;8.80;;;20.00;99.90;;;;;;5073182;28;20394;-77
2021/07/17 03:52:51;;;;;;;22.57;9.80;;;19.90;99.90;;;;;;5054820;28;20937;-78
2021/07/17 03:55:17;;;;;;;15.80;8.80;;;19.90;99.90;;;;;;5054921;28;20166;-75
2021/07/17 03:57:51;;;;;;;21.13;8.97;;;19.90;99.90;;;;;;5055195;28;20488;-75
2021/07/17 04:00:17;;;;;;;18.07;9.60;;;19.90;99.90;;;;;;5064603;28;20800;-76
2021/07/17 04:03:23;;;;;;;13.43;8.70;;;19.90;99.90;;;;;;5075058;28;20403;-76
2021/07/17 04:05:49;;;;;;;17.17;8.53;;;19.90;99.90;;;;;;5075149;28;20435;-76
2021/07/17 04:08:14;;;;;;;15.27;8.90;;;19.80;99.90;;;;;;5059025;28;20417;-76
2021/07/17 04:10:40;;;;;;;26.00;8.70;;;19.90;99.90;;;;;;5054845;28;20250;-76
2021/07/17 04:13:15;;;;;;;13.23;8.30;;;19.90;99.90;;;;;;5057871;28;20232;-76
2021/07/17 04:15:41;;;;;;;18.30;8.50;;;19.90;99.90;;;;;;5073799;28;20166;-76
2021/07/17 04:18:08;;;;;;;17.47;8.77;;;19.90;99.90;;;;;;5054424;28;20518;-76
2021/07/17 04:20:34;;;;;;;19.13;9.47;;;19.90;99.90;;;;;;5054672;28;20437;-76
2021/07/17 04:23:04;;;;;;;10.97;8.20;;;19.90;99.90;;;;;;5053760;28;20398;-76
2021/07/17 04:25:33;;;;;;;21.27;9.20;;;19.90;99.90;;;;;;5064948;28;20424;-76
2021/07/17 04:27:59;;;;;;;15.30;9.00;;;19.90;99.90;;;;;;5074623;28;20410;-76
2021/07/17 04:30:27;;;;;;;20.30;8.90;;;19.90;99.90;;;;;;5073563;28;20745;-76
2021/07/17 04:32:53;;;;;;;14.20;8.20;;;19.90;99.90;;;;;;5074274;28;20173;-76
2021/07/17 04:35:19;;;;;;;20.13;9.00;;;19.80;99.90;;;;;;5073212;28;20471;-76
2021/07/17 04:37:51;;;;;;;14.00;8.67;;;19.90;99.90;;;;;;5101088;28;20234;-77
2021/07/17 04:40:17;;;;;;;15.73;8.50;;;19.90;99.90;;;;;;5054261;28;20166;-76
2021/07/17 04:42:44;;;;;;;17.70;9.43;;;19.90;99.90;;;;;;5054283;28;20755;-76
2021/07/17 04:45:21;;;;;;;15.23;8.27;;;19.90;99.90;;;;;;5054455;28;20408;-76
2021/07/17 04:47:47;;;;;;;14.43;8.87;;;19.90;99.90;;;;;;5071688;28;20818;-76
2021/07/17 04:50:15;;;;;;;17.80;9.27;;;19.80;99.90;;;;;;5072576;28;20448;-76
2021/07/17 04:52:41;;;;;;;27.10;8.10;;;19.80;99.90;;;;;;5074196;28;20239;-76
2021/07/17 04:55:09;;;;;;;15.00;8.90;;;19.90;99.90;;;;;;5055842;28;20851;-76
2021/07/17 04:57:40;;;;;;;16.70;8.23;;;19.90;99.90;;;;;;5054131;28;20628;-77
2021/07/17 05:00:06;;;;;;;16.60;7.87;;;19.80;99.90;;;;;;5060413;28;20803;-76
2021/07/17 05:03:00;;;;;;;16.60;9.37;;;19.80;99.90;;;;;;5059790;28;20441;-75
2021/07/17 05:05:26;;;;;;;18.00;8.07;;;19.90;99.90;;;;;;5051629;28;20396;-76
2021/07/17 05:07:52;;;;;;;18.03;7.83;;;19.90;99.90;;;;;;5052575;28;20785;-76
2021/07/17 05:10:21;;;;;;;21.43;8.10;;;19.90;99.90;;;;;;5056441;28;20424;-75
2021/07/17 05:13:24;;;;;;;12.00;7.50;;;19.90;99.90;;;;;;5073650;28;20479;-75
2021/07/17 05:16:09;;;;;;;10.67;7.53;;;19.90;99.90;;;;;;5013575;28;20589;-76
2021/07/17 05:18:35;;;;;;;21.47;8.10;;;;;;;;;;5028918;28;20473;-76
2021/07/17 05:21:16;;;;;;;11.80;8.10;;;20.00;99.90;;;;;;4997123;28;20882;-76
2021/07/17 05:23:42;;;;;;;13.03;7.97;;;19.90;99.90;;;;;;5011741;28;20416;-76
2021/07/17 05:26:08;;;;;;;21.67;8.33;;;20.00;99.90;;;;;;5015757;28;20408;-77
2021/07/17 05:28:34;;;;;;;14.87;7.30;;;;;;;;;;5011765;28;20490;-76
2021/07/17 05:31:04;;;;;;;13.63;7.43;;;20.00;99.90;;;;;;5012229;28;20885;-75
2021/07/17 05:33:30;;;;;;;13.43;8.40;;;20.10;99.90;;;;;;5014306;28;20427;-75
2021/07/17 05:35:57;;;;;;;10.83;6.93;;;20.10;99.90;;;;;;5032921;28;20473;-75
2021/07/17 05:38:23;;;;;;;12.10;7.83;;;20.20;99.90;;;;;;5023518;28;20198;-75
2021/07/17 05:40:49;;;;;;;12.33;8.20;;;;;;;;;;5018923;28;20783;-75
2021/07/17 05:43:15;;;;;;;12.50;7.47;;;;;;;;;;5035619;28;20183;-75
2021/07/17 05:45:41;;;;;;;14.13;8.10;;;20.30;99.90;;;;;;5017106;28;20469;-75
2021/07/17 05:48:07;;;;;;;11.50;7.97;;;20.30;99.90;;;;;;5015750;28;20832;-75
2021/07/17 05:50:33;;;;;;;11.30;7.90;;;20.30;99.90;;;;;;5049646;28;20414;-75
2021/07/17 05:53:10;;;;;;;13.10;6.83;;;20.40;99.90;;;;;;5057348;28;20175;-75
2021/07/17 05:55:39;;;;;;;12.00;6.73;;;20.50;99.90;;;;;;5056002;28;20638;-75
2021/07/17 05:58:05;;;;;;;10.70;6.83;;;20.50;99.90;;;;;;5057216;28;20435;-75
2021/07/17 06:00:34;;;;;;;16.23;7.43;;;20.50;99.90;;;;;;5057794;28;20376;-76
2021/07/17 06:03:00;;;;;;;9.60;6.70;;;20.60;99.90;;;;;;5070298;28;20248;-77
2021/07/17 06:05:26;;;;;;;10.10;6.67;;;20.60;99.90;;;;;;5077427;28;20405;-76
2021/07/17 06:07:52;;;;;;;13.83;6.63;;;20.70;99.90;;;;;;5077033;28;20421;-76
2021/07/17 06:10:21;;;;;;;19.37;6.77;;;20.80;99.90;;;;;;5077005;28;20394;-76
2021/07/17 06:12:51;;;;;;;14.30;6.60;;;20.90;99.90;;;;;;5075041;28;20179;-76
2021/07/17 06:15:17;;;;;;;11.43;7.17;;;21.00;99.90;;;;;;5070225;28;20422;-75
2021/07/17 06:17:44;;;;;;;11.07;7.40;;;21.10;99.90;;;;;;5055260;28;20513;-75
2021/07/17 06:20:10;;;;;;;13.87;7.50;;;21.20;99.90;;;;;;5070952;28;20165;-75
2021/07/17 06:22:36;;;;;;;13.73;7.43;;;21.30;99.90;;;;;;5075678;28;20453;-75
2021/07/17 06:25:04;;;;;;;9.50;6.37;;;21.40;99.90;;;;;;5076353;28;20416;-75
2021/07/17 06:27:45;;;;;;;11.50;6.43;;;21.50;99.90;;;;;;5076944;28;20211;-75
2021/07/17 06:30:21;;;;;;;12.50;6.00;;;21.50;99.90;;;;;;5066540;28;20442;-75
2021/07/17 06:32:47;;;;;;;12.77;6.17;;;21.60;99.90;;;;;;5057074;28;20399;-75
2021/07/17 06:35:13;;;;;;;16.10;6.90;;;21.70;99.90;;;;;;5072004;28;20423;-76
2021/07/17 06:37:46;;;;;;;12.07;6.90;;;21.60;99.90;;;;;;5076459;28;20193;-75
2021/07/17 06:40:13;;;;;;;7.83;6.63;;;21.70;99.90;;;;;;5076468;28;20164;-75
2021/07/17 06:42:41;;;;;;;11.73;6.83;;;21.70;99.90;;;;;;5075315;28;20389;-75
2021/07/17 06:45:07;;;;;;;10.03;6.20;;;21.70;99.90;;;;;;5065677;28;20401;-75
2021/07/17 06:47:33;;;;;;;11.20;6.17;;;21.70;99.90;;;;;;5073915;28;20453;-76
2021/07/17 06:50:04;;;;;;;10.17;6.37;;;21.80;99.90;;;;;;5061037;28;20783;-77
2021/07/17 06:52:30;;;;;;;12.70;7.00;;;21.80;99.90;;;;;;5056456;28;20486;-76
2021/07/17 06:55:06;;;;;;;10.50;6.13;;;21.90;99.90;;;;;;5056146;28;20512;-76
2021/07/17 06:57:57;;;;;;;10.23;6.00;;;21.90;99.90;;;;;;5072202;28;20267;-76
2021/07/17 07:00:33;;;;;;;19.47;6.27;;;22.10;99.90;;;;;;5071250;28;20498;-76
2021/07/17 07:03:09;;;;;;;9.23;5.63;;;22.20;99.90;;;;;;5088380;28;20807;-75
2021/07/17 07:05:39;;;;;;;10.20;6.07;;;22.20;99.90;;;;;;5056287;28;20393;-75
2021/07/17 07:08:10;;;;;;;7.90;6.20;;;22.30;99.90;;;;;;5056009;28;20804;-75
2021/07/17 07:10:36;;;;;;;8.70;6.20;;;22.50;99.90;;;;;;5055834;28;20429;-75
2021/07/17 07:13:14;;;;;;;17.53;5.77;;;22.60;99.90;;;;;;5055684;28;20478;-75
2021/07/17 07:15:40;;;;;;;10.53;6.10;;;22.70;99.90;;;;;;5054749;28;20414;-76
2021/07/17 07:18:06;;;;;;;15.13;5.53;;;22.60;99.90;;;;;;5055418;28;20470;-75
2021/07/17 07:20:33;;;;;;;10.70;5.60;;;22.70;99.90;;;;;;5054418;28;20745;-75
2021/07/17 07:23:03;;;;;;;5.70;4.90;;;22.80;99.90;;;;;;5055526;28;20395;-75
2021/07/17 07:25:30;;;;;;;8.87;5.90;;;22.90;99.90;;;;;;5055723;28;20402;-75
2021/07/17 07:27:56;;;;;;;13.67;5.97;;;23.00;99.90;;;;;;5056442;28;20440;-75
2021/07/17 07:30:22;;;;;;;10.43;5.30;;;23.10;99.90;;;;;;5071113;28;20550;-75
2021/07/17 07:32:49;;;;;;;9.90;6.00;;;23.10;99.90;;;;;;5106644;28;20244;-76
2021/07/17 07:35:16;;;;;;;12.27;6.07;;;23.10;99.90;;;;;;5072790;28;20775;-76
2021/07/17 07:37:46;;;;;;;11.73;5.97;;;23.10;99.90;;;;;;5075752;28;20554;-76
2021/07/17 07:40:14;;;;;;;14.63;6.30;;;23.00;99.90;;;;;;5073243;28;20945;-76
2021/07/17 07:42:52;;;;;;;9.10;5.77;;;23.20;99.90;;;;;;5075629;28;20677;-76
2021/07/17 07:45:21;;;;;;;11.80;6.30;;;23.20;99.90;;;;;;5063699;28;20425;-76
2021/07/17 07:47:49;;;;;;;10.77;6.80;;;23.20;99.90;;;;;;5055573;28;20568;-75
2021/07/17 07:50:15;;;;;;;8.23;6.23;;;23.50;99.90;;;;;;5072821;28;20472;-80
2021/07/17 07:53:33;;;;;;;15.20;6.53;;;23.60;99.90;;;;;;5072872;28;20422;-82
2021/07/17 07:56:39;;;;;;;12.40;6.33;;;24.00;99.90;;;;;;5057640;28;20511;-81
2021/07/17 07:59:21;;;;;;;7.00;5.70;;;24.40;99.90;;;;;;5079802;28;20451;-82
2021/07/17 08:05:28;;;;;;;19.80;6.27;;;25.00;99.90;;;;;;5055849;28;20373;-81
2021/07/17 08:07:57;;;;;;;11.50;5.87;;;25.00;99.90;;;;;;5074410;28;20414;-81
2021/07/17 08:10:51;;;;;;;9.57;7.00;;;25.20;99.90;;;;;;5074491;28;20953;-81
2021/07/17 08:13:21;;;;;;;8.10;5.70;;;25.00;99.90;;;;;;5070331;28;20496;-81
2021/07/17 08:15:53;;;;;;;13.57;6.50;;;25.00;99.90;;;;;;5062222;28;20920;-81
2021/07/17 08:18:21;;;;;;;10.43;6.30;;;25.00;99.90;;;;;;5054454;28;20464;-81
2021/07/17 08:20:47;;;;;;;8.13;5.93;;;25.30;99.90;;;;;;5085668;28;20955;-76
2021/07/17 08:23:13;;;;;;;19.23;6.43;;;25.30;99.90;;;;;;5057171;28;20479;-76
2021/07/17 08:25:38;;;;;;;7.63;5.30;;;25.30;99.90;;;;;;5054546;28;20171;-75
2021/07/17 08:28:04;;;;;;;8.37;5.50;;;25.60;99.90;;;;;;5066644;28;20188;-75
2021/07/17 08:30:35;;;;;;;10.07;6.43;;;25.50;99.90;;;;;;5074313;28;20211;-75
2021/07/17 08:33:01;;;;;;;9.33;6.67;;;25.50;99.90;;;;;;5072459;28;20662;-74
2021/07/17 08:35:27;;;;;;;11.90;7.27;;;25.50;99.90;;;;;;5074289;28;20446;-75
2021/07/17 08:37:53;;;;;;;11.73;6.53;;;25.70;99.90;;;;;;5074108;28;20446;-75
2021/07/17 08:40:19;;;;;;;17.93;5.70;;;26.00;99.90;;;;;;5074189;28;20172;-75
2021/07/17 08:42:50;;;;;;;14.47;6.20;;;26.10;99.90;;;;;;5070625;28;21515;-75
2021/07/17 08:48:54;;;;;;;7.60;5.40;;;26.20;99.90;;;;;;5070996;28;20418;-82
2021/07/17 08:55:04;;;;;;;11.13;6.10;;;26.10;99.90;;;;;;5056670;28;20765;-82
2021/07/17 09:00:52;;;;;;;11.87;6.57;;;26.40;99.90;;;;;;5073543;28;20876;-82
2021/07/17 09:03:21;;;;;;;9.63;5.93;;;26.40;99.90;;;;;;5069988;28;21652;-82
2021/07/17 09:06:15;;;;;;;12.80;6.00;;;26.40;99.90;;;;;;5053727;28;20189;-81
2021/07/17 09:08:41;;;;;;;8.70;5.70;;;26.40;99.90;;;;;;5062415;28;20431;-80
2021/07/17 09:11:15;;;;;;;11.13;6.27;;;26.30;99.90;;;;;;5053437;28;20443;-79
2021/07/17 09:17:36;;;;;;;9.63;5.93;;;26.40;99.90;;;;;;5053662;28;20395;-82
2021/07/17 09:20:05;;;;;;;11.13;6.40;;;26.50;99.90;;;;;;4991617;28;20434;-82
2021/07/17 09:26:20;;;;;;;12.03;5.93;;;26.50;99.90;;;;;;4992163;28;20474;-87
2021/07/17 09:29:00;;;;;;;14.23;6.30;;;26.50;99.90;;;;;;4992623;28;20428;-87
2021/07/17 09:34:51;;;;;;;55.80;14.07;;;26.50;99.90;;;;;;4991743;28;20415;-83
2021/07/17 09:37:23;;;;;;;18.93;8.07;;;26.20;99.90;;;;;;4992380;28;20406;-84
2021/07/17 09:43:10;;;;;;;14.23;7.03;;;26.10;99.90;;;;;;4991997;28;20497;-83
2021/07/17 09:45:52;;;;;;;20.13;7.57;;;26.10;99.90;;;;;;4975344;28;20457;-83
2021/07/17 09:52:10;;;;;;;9.03;6.40;;;26.60;99.90;;;;;;4992756;28;20442;-88
2021/07/17 09:58:09;;;;;;;10.38;7.00;;;26.90;99.90;;;;;;5053511;28;20372;-88
2021/07/17 10:01:10;;;;;;;9.17;6.27;;;27.30;99.90;;;;;;5052679;28;20416;-87
2021/07/17 10:04:04;;;;;;;8.77;5.77;;;27.60;99.90;;;;;;5053751;28;20398;-87
2021/07/17 10:10:45;;;;;;;13.30;6.33;;;27.30;99.90;;;;;;5033869;28;20404;-88
2021/07/17 10:17:21;;;;;;;10.67;6.77;;;27.00;99.90;;;;;;5033744;28;20754;-88
2021/07/17 10:20:21;;;;;;;15.17;7.20;;;27.00;99.90;;;;;;5031643;28;20451;-84
2021/07/17 10:26:20;;;;;;;8.27;5.87;;;27.60;99.90;;;;;;5050611;28;20459;-84
2021/07/17 10:28:59;;;;;;;10.57;7.00;;;27.60;99.90;;;;;;5067191;28;20418;-84
2021/07/17 10:31:51;;;;;;;13.30;6.33;;;27.80;99.90;;;;;;5036647;28;20454;-84
2021/07/17 10:37:47;;;;;;;14.23;6.33;;;28.20;99.90;;;;;;5055096;28;20391;-85
2021/07/17 10:40:51;;;;;;;10.20;5.40;;;28.30;99.90;;;;;;5056455;28;20412;-84
2021/07/17 10:47:03;;;;;;;6.83;5.73;;;28.30;99.90;;;;;;5036330;28;20392;-82
2021/07/17 10:49:39;;;;;;;8.50;6.63;;;28.30;99.90;;;;;;5036751;28;20429;-82
2021/07/17 10:52:43;;;;;;;7.30;6.03;;;28.50;99.90;;;;;;5045449;28;20417;-83
2021/07/17 10:55:32;;;;;;;11.10;5.57;;;28.70;99.90;;;;;;5014514;28;20925;-83
2021/07/17 10:58:36;;;;;;;8.30;6.60;;;28.80;99.90;;;;;;5014256;28;20549;-81
2021/07/17 11:01:03;;;;;;;14.23;6.13;;;29.40;99.90;;;;;;4977199;28;20472;-81
2021/07/17 11:04:21;;;;;;;8.27;6.20;;;29.40;99.90;;;;;;4975105;28;20431;-81
2021/07/17 11:06:52;;;;;;;9.33;5.80;;;29.50;99.90;;;;;;4975372;28;20398;-82
2021/07/17 11:09:30;;;;;;;7.37;6.50;;;29.70;99.90;;;;;;4974407;28;20550;-82
2021/07/17 11:12:17;;;;;;;10.87;6.43;;;30.00;99.90;;;;;;4958620;28;20493;-82
2021/07/17 11:14:46;;;;;;;7.30;6.30;;;30.00;99.90;;;;;;4974570;28;20445;-81
2021/07/17 11:17:51;;;;;;;7.60;5.37;;;30.20;99.90;;;;;;4974736;28;20421;-81
2021/07/17 11:20:22;;;;;;;10.20;6.17;;;30.30;99.90;;;;;;4974484;28;20436;-81
2021/07/17 11:23:12;;;;;;;13.20;6.57;;;30.30;99.90;;;;;;4974310;28;20414;-83
2021/07/17 11:26:14;;;;;;;10.73;6.83;;;30.60;99.90;;;;;;4974395;28;20860;-83
2021/07/17 11:28:54;;;;;;;6.73;5.77;;;30.70;99.90;;;;;;4986227;28;21134;-83
2021/07/17 11:31:33;;;;;;;11.93;7.30;;;30.70;99.90;;;;;;5013852;28;20408;-81
2021/07/17 11:34:41;;;;;;;11.37;6.07;;;30.70;99.90;;;;;;5014280;28;20461;-80
2021/07/17 11:37:12;;;;;;;7.60;6.50;;;30.80;99.90;;;;;;5010085;28;20536;-79
2021/07/17 11:39:43;;;;;;;10.23;6.97;;;30.70;99.90;;;;;;5033474;28;20458;-80
2021/07/17 11:42:12;;;;;;;9.80;6.30;;;30.60;99.90;;;;;;5033181;28;20466;-80
2021/07/17 11:44:55;;;;;;;9.10;6.77;;;30.50;99.90;;;;;;5031582;28;20506;-80
2021/07/17 11:47:27;;;;;;;11.97;6.80;;;30.50;99.90;;;;;;5030312;28;20454;-80
2021/07/17 11:50:45;;;;;;;11.70;6.80;;;30.70;99.90;;;;;;5013581;28;20403;-83
2021/07/17 11:53:28;;;;;;;9.63;6.60;;;30.70;99.90;;;;;;5013277;28;20397;-82
2021/07/17 11:56:00;;;;;;;14.73;8.10;;;30.90;99.90;;;;;;5013066;28;20428;-80
2021/07/17 11:59:10;;;;;;;10.83;6.40;;;31.10;99.90;;;;;;4996832;28;20943;-81
2021/07/17 12:02:05;;;;;;;11.27;7.10;;;31.00;99.90;;;;;;5015488;28;20416;-81
2021/07/17 12:07:58;;;;;;;8.10;6.30;;;30.80;99.90;;;;;;5032427;28;20460;-82
2021/07/17 12:10:45;;;;;;;8.70;6.60;;;30.70;99.90;;;;;;5037140;28;20472;-82
2021/07/17 12:13:22;;;;;;;9.27;7.10;;;30.70;99.90;;;;;;5054763;28;20398;-82
2021/07/17 12:16:04;;;;;;;9.27;7.20;;;30.70;99.90;;;;;;5047606;28;20914;-82
2021/07/17 12:18:29;;;;;;;10.73;7.00;;;30.70;99.90;;;;;;5034396;28;20542;-76
2021/07/17 12:20:58;;;;;;;9.03;6.40;;;30.60;99.90;;;;;;5034955;28;20507;-76
2021/07/17 12:23:28;;;;;;;8.27;6.33;;;30.60;99.90;;;;;;5042554;28;20176;-77
2021/07/17 12:26:02;;;;;;;8.43;6.50;;;30.60;99.90;;;;;;5035194;28;20406;-77
2021/07/17 12:28:34;;;;;;;8.43;6.23;;;30.40;99.90;;;;;;5035360;28;20443;-77
2021/07/17 12:31:07;;;;;;;11.27;6.37;;;30.00;99.90;;;;;;5034584;28;20464;-77
2021/07/17 12:33:42;;;;;;;12.30;6.80;;;30.00;99.90;;;;;;5034823;28;20445;-77
2021/07/17 12:36:17;;;;;;;8.87;6.73;;;29.20;99.90;;;;;;5034720;28;20871;-75
2021/07/17 12:38:46;;;;;;;7.70;6.80;;;29.10;99.90;;;;;;5034092;28;20445;-75
2021/07/17 12:41:14;;;;;;;10.17;7.40;;;29.00;99.90;;;;;;5038158;28;20465;-74
2021/07/17 12:43:45;;;;;;;10.63;6.63;;;29.00;99.90;;;;;;5033652;28;20396;-74
2021/07/17 12:46:14;;;;;;;9.93;6.87;;;28.70;99.90;;;;;;5033933;28;20461;-74
2021/07/17 12:48:48;;;;;;;9.80;6.80;;;28.50;99.90;;;;;;5039087;28;20431;-74
2021/07/17 12:51:17;;;;;;;7.63;6.30;;;28.50;99.90;;;;;;5033162;28;20422;-74
2021/07/17 12:53:44;;;;;;;8.30;6.60;;;28.40;99.90;;;;;;5034047;28;20402;-74
2021/07/17 12:56:44;;;;;;;11.60;6.67;;;28.30;99.90;;;;;;5044410;28;20422;-74
2021/07/17 12:59:32;;;;;;;9.23;6.53;;;28.30;99.90;;;;;;5043392;28;20461;-74
2021/07/17 13:02:10;;;;;;;9.70;6.70;;;28.20;99.90;;;;;;5053876;28;20394;-74
2021/07/17 13:04:44;;;;;;;9.70;6.47;;;28.20;99.90;;;;;;5038629;28;20426;-75
2021/07/17 13:07:10;;;;;;;10.43;6.83;;;28.20;99.90;;;;;;5033896;28;20411;-76
2021/07/17 13:09:38;;;;;;;13.90;7.80;;;28.30;99.90;;;;;;5040605;28;20947;-76
2021/07/17 13:12:13;;;;;;;15.50;6.50;;;28.30;99.90;;;;;;5034243;28;20576;-76
2021/07/17 13:14:41;;;;;;;18.53;6.40;;;28.30;99.90;;;;;;5042569;28;20964;-76
2021/07/17 13:17:15;;;;;;;9.87;6.33;;;28.60;99.90;;;;;;5039561;28;20483;-76
2021/07/17 13:20:12;;;;;;;8.67;6.73;;;29.10;99.90;;;;;;5035446;28;20499;-76
2021/07/17 13:22:46;;;;;;;14.17;6.50;;;29.20;99.90;;;;;;5011791;28;20947;-77
2021/07/17 13:25:24;;;;;;;7.80;6.40;;;29.30;99.90;;;;;;5011651;28;20514;-77
2021/07/17 13:28:04;;;;;;;10.20;7.17;;;29.00;99.90;;;;;;5011883;28;20985;-77
2021/07/17 13:30:31;;;;;;;8.20;6.63;;;29.00;99.90;;;;;;5011370;28;20545;-77
2021/07/17 13:33:06;;;;;;;13.87;7.20;;;29.00;99.90;;;;;;5011905;28;20426;-77
2021/07/17 13:35:35;;;;;;;12.90;7.40;;;29.20;99.90;;;;;;5012189;28;20453;-74
2021/07/17 13:38:06;;;;;;;10.93;6.50;;;29.20;99.90;;;;;;4995018;28;20489;-74
2021/07/17 13:40:34;;;;;;;7.90;6.70;;;29.30;99.90;;;;;;5010763;28;20429;-74
2021/07/17 13:43:17;;;;;;;7.87;7.10;;;29.20;99.90;;;;;;5011238;28;20417;-74
2021/07/17 13:45:46;;;;;;;9.23;6.87;;;29.40;99.90;;;;;;5011161;28;20512;-75
2021/07/17 13:48:22;;;;;;;11.87;6.80;;;29.30;99.90;;;;;;5011471;28;20407;-75
2021/07/17 13:51:02;;;;;;;11.87;7.53;;;29.80;99.90;;;;;;5011571;28;20415;-77
2021/07/17 13:53:34;;;;;;;11.50;8.17;;;29.90;99.90;;;;;;5011409;28;20454;-77
2021/07/17 13:56:12;;;;;;;9.37;6.97;;;30.10;99.90;;;;;;5014230;28;20817;-77
2021/07/17 13:58:39;;;;;;;9.93;7.10;;;30.10;99.90;;;;;;5029217;28;20469;-76
2021/07/17 14:01:07;;;;;;;12.13;7.67;;;30.20;99.90;;;;;;5057473;28;20399;-77
2021/07/17 14:03:45;;;;;;;15.03;7.23;;;30.20;99.90;;;;;;5039650;28;20423;-77
2021/07/17 14:06:15;;;;;;;10.10;7.13;;;30.40;99.90;;;;;;5069469;28;20909;-76